createdAt,value
2022-11-24T00:00:09.687Z,-0.60
2022-11-24T00:03:00.801Z,-0.60
2022-11-24T00:05:50.255Z,-0.60
2022-11-24T00:08:41.167Z,-0.60
2022-11-24T00:11:32.721Z,-0.60
2022-11-24T00:14:22.073Z,-0.60
2022-11-24T00:17:11.405Z,-0.70
2022-11-24T00:20:02.066Z,-0.60
2022-11-24T00:22:51.504Z,-0.70
2022-11-24T00:25:40.657Z,-0.70
2022-11-24T00:28:29.937Z,-0.80
2022-11-24T00:31:21.145Z,-0.90
2022-11-24T00:34:13.772Z,-0.80
2022-11-24T00:37:04.406Z,-0.80
2022-11-24T00:39:53.615Z,-0.90
2022-11-24T00:42:42.935Z,-0.90
2022-11-24T00:45:32.056Z,-0.90
2022-11-24T00:48:21.326Z,-1.00
2022-11-24T00:51:12.586Z,-1.00
2022-11-24T00:54:03.901Z,-1.00
2022-11-24T00:56:53.036Z,-1.00
2022-11-24T00:59:42.325Z,-1.00
2022-11-24T01:02:31.661Z,-1.00
2022-11-24T01:05:20.896Z,-1.00
2022-11-24T01:08:10.260Z,-0.90
2022-11-24T01:11:14.912Z,-1.00
2022-11-24T01:14:04.307Z,-1.00
2022-11-24T01:16:53.747Z,-0.90
2022-11-24T01:19:42.926Z,-0.80
2022-11-24T01:22:32.804Z,-0.80
2022-11-24T01:25:21.982Z,-1.00
2022-11-24T01:28:12.697Z,-1.00
2022-11-24T01:31:02.604Z,-0.90
2022-11-24T01:33:52.323Z,-0.90
2022-11-24T01:36:41.536Z,-0.90
2022-11-24T01:39:30.799Z,-1.00
2022-11-24T01:42:20.035Z,-1.00
2022-11-24T01:45:37.444Z,-1.00
2022-11-24T01:48:29.747Z,-1.00
2022-11-24T01:51:24.096Z,-1.00
2022-11-24T01:54:17.897Z,-0.90
2022-11-24T01:57:11.734Z,-0.90
2022-11-24T02:00:07.553Z,-1.00
2022-11-24T02:03:00.241Z,-0.90
2022-11-24T02:05:58.022Z,-0.90
2022-11-24T02:08:52.781Z,-0.90
2022-11-24T02:11:43.342Z,-0.90
2022-11-24T02:14:15.814Z,-0.90
2022-11-24T02:17:05.331Z,-1.00
2022-11-24T02:20:01.527Z,-0.90
2022-11-24T02:22:58.507Z,-1.00
2022-11-24T02:25:57.315Z,-0.90
2022-11-24T02:28:48.814Z,-0.90
2022-11-24T02:31:38.854Z,-1.00
2022-11-24T02:34:28.439Z,-0.90
2022-11-24T02:37:17.857Z,-0.90
2022-11-24T02:40:08.391Z,-1.00
2022-11-24T02:43:03.309Z,-1.00
2022-11-24T02:45:54.181Z,-1.10
2022-11-24T02:48:43.799Z,-1.10
2022-11-24T02:51:34.768Z,-1.10
2022-11-24T02:54:24.879Z,-1.10
2022-11-24T02:57:14.683Z,-1.30
2022-11-24T03:00:06.658Z,-1.30
2022-11-24T03:02:57.547Z,-1.30
2022-11-24T03:05:47.126Z,-1.30
2022-11-24T03:08:36.631Z,-1.20
2022-11-24T03:11:26.093Z,-1.30
2022-11-24T03:14:15.783Z,-1.30
2022-11-24T03:17:05.732Z,-1.20
2022-11-24T03:20:00.227Z,-1.10
2022-11-24T03:22:53.537Z,-1.20
2022-11-24T03:25:43.000Z,-1.20
2022-11-24T03:28:32.481Z,-1.20
2022-11-24T03:31:22.280Z,-1.30
2022-11-24T03:34:12.032Z,-1.30
2022-11-24T03:37:02.949Z,-1.40
2022-11-24T03:39:53.128Z,-1.40
2022-11-24T03:42:42.791Z,-1.50
2022-11-24T03:45:48.049Z,-1.40
2022-11-24T03:48:37.598Z,-1.40
2022-11-24T03:51:27.067Z,-1.40
2022-11-24T03:54:18.053Z,-1.40
2022-11-24T03:57:07.512Z,-1.60
2022-11-24T03:59:57.463Z,-1.70
2022-11-24T04:02:55.833Z,-1.60
2022-11-24T04:05:45.474Z,-1.50
2022-11-24T04:08:34.931Z,-1.60
2022-11-24T04:11:43.099Z,-1.50
2022-11-24T04:14:32.979Z,-1.50
2022-11-24T04:17:22.626Z,-1.50
2022-11-24T04:20:17.218Z,-1.60
2022-11-24T04:23:06.694Z,-1.60
2022-11-24T04:25:56.149Z,-1.60
2022-11-24T04:28:46.969Z,-1.50
2022-11-24T04:31:36.361Z,-1.50
2022-11-24T04:34:25.804Z,-1.40
2022-11-24T04:37:15.404Z,-1.40
2022-11-24T04:40:05.389Z,-1.40
2022-11-24T04:42:55.976Z,-1.30
2022-11-24T04:45:47.047Z,-1.40
2022-11-24T04:48:36.435Z,-1.40
2022-11-24T04:51:25.863Z,-1.30
2022-11-24T04:54:16.414Z,-1.40
2022-11-24T04:57:05.935Z,-1.30
2022-11-24T04:59:57.794Z,-1.40
2022-11-24T05:02:48.612Z,-1.30
2022-11-24T05:05:38.036Z,-1.40
2022-11-24T05:08:27.384Z,-1.50
2022-11-24T05:11:16.863Z,-1.40
2022-11-24T05:14:06.342Z,-1.30
2022-11-24T05:16:55.822Z,-1.40
2022-11-24T05:19:46.619Z,-1.40
2022-11-24T05:22:36.249Z,-1.40
2022-11-24T05:25:25.563Z,-1.40
2022-11-24T05:28:14.922Z,-1.30
2022-11-24T05:31:05.834Z,-1.30
2022-11-24T05:33:56.127Z,-1.30
2022-11-24T05:36:56.763Z,-1.20
2022-11-24T05:39:46.508Z,-1.20
2022-11-24T05:42:46.595Z,-1.30
2022-11-24T05:45:37.019Z,-1.30
2022-11-24T05:48:26.519Z,-1.30
2022-11-24T05:51:16.388Z,-1.20
2022-11-24T05:54:07.329Z,-1.30
2022-11-24T05:56:57.376Z,-1.30
2022-11-24T05:59:47.139Z,-1.30
2022-11-24T06:02:36.597Z,-1.30
2022-11-24T06:05:26.710Z,-1.20
2022-11-24T06:08:16.482Z,-1.20
2022-11-24T06:11:19.539Z,-1.10
2022-11-24T06:14:11.360Z,-1.20
2022-11-24T06:17:01.156Z,-1.20
2022-11-24T06:19:52.011Z,-1.20
2022-11-24T06:22:41.370Z,-1.10
2022-11-24T06:25:31.555Z,-1.00
2022-11-24T06:28:22.237Z,-1.10
2022-11-24T06:31:12.571Z,-1.00
2022-11-24T06:34:02.141Z,-1.10
2022-11-24T06:36:51.468Z,-1.00
2022-11-24T06:39:40.620Z,-1.00
2022-11-24T06:42:29.913Z,-0.90
2022-11-24T06:45:20.750Z,-0.90
2022-11-24T06:48:10.100Z,-0.90
2022-11-24T06:51:01.356Z,-0.80
2022-11-24T06:53:50.998Z,-0.80
2022-11-24T06:56:40.539Z,-0.90
2022-11-24T06:59:30.219Z,-0.90
2022-11-24T07:02:21.060Z,-0.80
2022-11-24T07:05:10.830Z,-0.80
2022-11-24T07:08:01.958Z,-0.90
2022-11-24T07:10:52.798Z,-0.80
2022-11-24T07:13:42.187Z,-0.70
2022-11-24T07:16:32.578Z,-0.70
2022-11-24T07:19:25.193Z,-0.70
2022-11-24T07:22:14.872Z,-0.60
2022-11-24T07:25:07.660Z,-0.70
2022-11-24T07:28:00.096Z,-0.60
2022-11-24T07:30:49.526Z,-0.60
2022-11-24T07:33:39.811Z,-0.50
2022-11-24T07:36:30.721Z,-0.50
2022-11-24T07:39:20.310Z,-0.50
2022-11-24T07:42:11.746Z,-0.50
2022-11-24T07:45:01.107Z,-0.50
2022-11-24T07:47:50.629Z,-0.60
2022-11-24T07:50:39.850Z,-0.60
2022-11-24T07:53:31.920Z,-0.50
2022-11-24T07:56:21.326Z,-0.40
2022-11-24T07:59:11.537Z,-0.40
2022-11-24T08:02:01.020Z,-0.20
2022-11-24T08:04:50.527Z,-0.20
2022-11-24T08:07:39.850Z,-0.10
2022-11-24T08:10:30.735Z,0.10
2022-11-24T08:13:20.576Z,0.20
2022-11-24T08:16:13.367Z,0.30
2022-11-24T08:19:03.854Z,0.40
2022-11-24T08:21:54.562Z,0.40
2022-11-24T08:24:47.939Z,0.50
2022-11-24T08:27:40.455Z,0.60
2022-11-24T08:30:30.362Z,0.50
2022-11-24T08:33:20.361Z,0.50
2022-11-24T08:36:11.498Z,0.30
2022-11-24T08:39:02.076Z,0.30
2022-11-24T08:41:51.421Z,0.10
2022-11-24T08:44:43.535Z,0.10
2022-11-24T08:47:33.648Z,0.10
2022-11-24T08:50:23.869Z,0.00
2022-11-24T08:53:13.298Z,-0.10
2022-11-24T08:56:03.161Z,-0.10
2022-11-24T08:58:52.744Z,0.00
2022-11-24T09:01:43.702Z,0.00
2022-11-24T09:04:33.698Z,-0.10
2022-11-24T09:07:23.737Z,-0.10
2022-11-24T09:10:14.112Z,0.00
2022-11-24T09:13:12.103Z,0.00
2022-11-24T09:16:06.000Z,-0.10
2022-11-24T09:19:01.398Z,0.00
2022-11-24T09:21:51.649Z,0.00
2022-11-24T09:24:41.066Z,-0.10
2022-11-24T09:27:30.595Z,0.00
2022-11-24T09:30:20.646Z,0.20
2022-11-24T09:33:10.190Z,0.00
2022-11-24T09:36:01.096Z,0.20
2022-11-24T09:38:50.605Z,0.20
2022-11-24T09:42:10.056Z,0.40
2022-11-24T09:45:30.389Z,0.30
2022-11-24T09:48:32.712Z,0.40
2022-11-24T09:51:29.632Z,0.40
2022-11-24T09:54:22.735Z,0.30
2022-11-24T09:57:15.909Z,0.20
2022-11-24T10:00:13.671Z,0.30
2022-11-24T10:03:03.070Z,0.40
2022-11-24T10:05:53.770Z,0.30
2022-11-24T10:09:09.310Z,0.30
2022-11-24T10:12:06.331Z,0.30
2022-11-24T10:18:59.010Z,0.40
2022-11-24T10:22:00.897Z,0.30
2022-11-24T10:25:16.277Z,0.40
2022-11-24T10:28:11.585Z,0.40
2022-11-24T10:31:19.397Z,0.40
2022-11-24T10:34:15.670Z,0.50
2022-11-24T10:37:10.185Z,0.70
2022-11-24T10:40:10.769Z,0.70
2022-11-24T10:43:05.575Z,0.60
2022-11-24T10:45:56.181Z,0.60
2022-11-24T10:48:49.923Z,0.60
2022-11-24T10:51:48.443Z,0.50
2022-11-24T10:54:41.442Z,0.60
2022-11-24T10:57:34.655Z,0.50
2022-11-24T11:00:37.120Z,0.50
2022-11-24T11:03:28.783Z,0.50
2022-11-24T11:06:23.843Z,0.60
2022-11-24T11:09:22.112Z,0.70
2022-11-24T11:12:36.256Z,0.60
2022-11-24T11:15:33.683Z,0.50
2022-11-24T11:18:23.580Z,0.50
2022-11-24T11:21:29.685Z,0.60
2022-11-24T11:24:21.228Z,0.50
2022-11-24T11:27:21.177Z,0.50
2022-11-24T11:36:47.998Z,0.50
2022-11-24T11:39:46.985Z,0.60
2022-11-24T11:43:01.985Z,0.50
2022-11-24T11:46:02.349Z,0.60
2022-11-24T11:48:53.581Z,0.70
2022-11-24T11:52:15.937Z,0.80
2022-11-24T11:55:38.519Z,0.70
2022-11-24T11:59:05.614Z,0.70
2022-11-24T12:02:25.686Z,0.70
2022-11-24T12:05:26.653Z,0.80
2022-11-24T12:08:31.331Z,0.80
2022-11-24T12:11:37.532Z,0.70
2022-11-24T12:14:39.474Z,0.70
2022-11-24T12:17:39.416Z,0.80
2022-11-24T12:20:46.645Z,0.80
2022-11-24T12:23:49.522Z,0.90
2022-11-24T12:26:45.875Z,0.90
2022-11-24T12:29:48.649Z,0.90
2022-11-24T12:32:57.450Z,0.90
2022-11-24T12:35:54.848Z,0.90
2022-11-24T12:38:56.651Z,0.80
2022-11-24T12:41:58.897Z,0.80
2022-11-24T12:45:07.629Z,0.70
2022-11-24T12:48:28.726Z,0.70
2022-11-24T12:51:21.607Z,0.70
2022-11-24T12:54:16.087Z,0.70
2022-11-24T12:57:14.228Z,0.60
2022-11-24T13:00:07.919Z,0.70
2022-11-24T13:03:16.292Z,0.60
2022-11-24T13:06:12.677Z,0.60
2022-11-24T13:09:09.638Z,0.70
2022-11-24T13:12:12.466Z,0.60
2022-11-24T13:15:01.910Z,0.60
2022-11-24T13:18:05.497Z,0.60
2022-11-24T13:20:59.884Z,0.40
2022-11-24T13:23:58.847Z,0.50
2022-11-24T13:26:51.423Z,0.50
2022-11-24T13:29:42.394Z,0.50
2022-11-24T13:33:02.301Z,0.50
2022-11-24T13:36:30.209Z,0.40
2022-11-24T13:39:22.709Z,0.40
2022-11-24T13:42:42.425Z,0.30
2022-11-24T13:45:51.653Z,0.40
2022-11-24T13:49:02.446Z,0.40
2022-11-24T13:51:55.866Z,0.30
2022-11-24T13:54:45.270Z,0.20
2022-11-24T13:57:37.142Z,0.10
2022-11-24T14:00:28.369Z,0.20
2022-11-24T14:03:23.717Z,0.20
2022-11-24T14:06:27.381Z,0.20
2022-11-24T14:09:28.860Z,0.20
2022-11-24T14:12:20.559Z,0.20
2022-11-24T14:15:24.942Z,0.00
2022-11-24T14:18:23.808Z,0.10
2022-11-24T14:21:31.042Z,0.10
2022-11-24T14:24:25.581Z,0.10
2022-11-24T14:27:18.025Z,0.20
2022-11-24T14:30:22.953Z,0.20
2022-11-24T14:33:16.524Z,0.20
2022-11-24T14:36:06.427Z,0.20
2022-11-24T14:38:55.881Z,0.10
2022-11-24T14:41:52.376Z,0.20
2022-11-24T14:44:50.092Z,0.10
2022-11-24T14:47:47.363Z,0.10
2022-11-24T14:50:36.841Z,0.10
2022-11-24T14:53:26.604Z,0.20
2022-11-24T14:56:27.355Z,0.20
2022-11-24T14:59:24.184Z,0.20
2022-11-24T15:02:42.405Z,0.20
2022-11-24T15:05:54.282Z,0.10
2022-11-24T15:08:47.324Z,0.10
2022-11-24T15:11:38.094Z,0.10
2022-11-24T15:14:40.465Z,0.10
2022-11-24T15:17:31.577Z,0.10
2022-11-24T15:20:30.736Z,0.10
2022-11-24T15:23:25.685Z,0.10
2022-11-24T15:26:38.275Z,0.10
2022-11-24T15:29:30.924Z,0.10
2022-11-24T15:32:20.395Z,0.10
2022-11-24T15:35:13.479Z,0.10
2022-11-24T15:38:04.672Z,0.10
2022-11-24T15:40:55.926Z,0.10
2022-11-24T15:43:45.344Z,0.10
2022-11-24T15:46:38.514Z,0.10
2022-11-24T15:49:30.107Z,0.00
2022-11-24T15:52:21.073Z,-0.10
2022-11-24T15:55:19.255Z,-0.10
2022-11-24T15:58:10.433Z,0.00
2022-11-24T16:01:00.120Z,0.00
2022-11-24T16:03:49.688Z,0.00
2022-11-24T16:06:39.547Z,0.00
2022-11-24T16:09:29.303Z,0.00
2022-11-24T16:12:21.183Z,0.00
2022-11-24T16:15:11.670Z,0.00
2022-11-24T16:18:01.059Z,0.00
2022-11-24T16:20:50.743Z,0.00
2022-11-24T16:23:40.911Z,0.00
2022-11-24T16:26:30.404Z,-0.10
2022-11-24T16:29:24.333Z,-0.10
2022-11-24T16:32:14.302Z,-0.20
2022-11-24T16:35:04.834Z,-0.10
2022-11-24T16:37:54.376Z,-0.10
2022-11-24T16:40:43.850Z,-0.10
2022-11-24T16:43:33.967Z,-0.10
2022-11-24T16:46:26.382Z,0.00
2022-11-24T16:49:17.332Z,-0.10
2022-11-24T16:52:06.992Z,0.00
2022-11-24T16:54:57.051Z,0.00
2022-11-24T16:57:47.648Z,0.00
2022-11-24T17:00:37.562Z,0.00
2022-11-24T17:03:28.579Z,0.00
2022-11-24T17:06:21.717Z,-0.10
2022-11-24T17:09:14.352Z,-0.10
2022-11-24T17:12:03.873Z,-0.10
2022-11-24T17:15:24.592Z,-0.10
2022-11-24T17:18:23.884Z,-0.10
2022-11-24T17:21:16.008Z,-0.10
2022-11-24T17:24:06.649Z,-0.10
2022-11-24T17:26:58.994Z,-0.10
2022-11-24T17:29:48.606Z,-0.10
2022-11-24T17:32:38.675Z,-0.20
2022-11-24T17:35:28.967Z,-0.30
2022-11-24T17:38:20.037Z,-0.30
2022-11-24T17:41:09.678Z,-0.30
2022-11-24T17:43:59.666Z,-0.30
2022-11-24T17:46:50.131Z,-0.30
2022-11-24T17:49:39.481Z,-0.20
2022-11-24T17:52:32.104Z,-0.10
2022-11-24T17:55:23.785Z,-0.10
2022-11-24T17:58:13.300Z,-0.10
2022-11-24T18:01:03.542Z,-0.10
2022-11-24T18:03:53.828Z,-0.20
2022-11-24T18:06:43.836Z,-0.20
2022-11-24T18:09:33.138Z,-0.20
2022-11-24T18:12:24.432Z,-0.10
2022-11-24T18:15:14.427Z,-0.10
2022-11-24T18:18:05.148Z,-0.10
2022-11-24T18:20:56.854Z,-0.10
2022-11-24T18:23:48.219Z,-0.10
2022-11-24T18:26:40.192Z,0.00
2022-11-24T18:29:33.024Z,0.00
2022-11-24T18:32:23.608Z,0.00
2022-11-24T18:35:13.836Z,0.10
2022-11-24T18:38:03.580Z,0.20
2022-11-24T18:40:55.993Z,0.10
2022-11-24T18:43:46.438Z,0.20
2022-11-24T18:46:41.248Z,0.20
2022-11-24T18:49:32.666Z,0.30
2022-11-24T18:52:22.584Z,0.20
2022-11-24T18:55:13.097Z,0.20
2022-11-24T18:58:03.231Z,0.20
2022-11-24T19:00:54.372Z,0.20
2022-11-24T19:03:48.960Z,0.10
2022-11-24T19:06:40.179Z,0.10
2022-11-24T19:09:30.795Z,0.10
2022-11-24T19:12:20.907Z,0.10
2022-11-24T19:15:12.558Z,0.10
2022-11-24T19:18:03.009Z,0.10
2022-11-24T19:20:54.658Z,0.00
2022-11-24T19:23:45.738Z,0.10
2022-11-24T19:26:36.902Z,0.10
2022-11-24T19:29:27.608Z,0.10
2022-11-24T19:32:22.238Z,0.10
2022-11-24T19:35:13.917Z,0.10
2022-11-24T19:38:56.294Z,0.20
2022-11-24T19:41:47.888Z,0.20
2022-11-24T19:44:38.228Z,0.20
2022-11-24T19:47:28.709Z,0.10
2022-11-24T19:50:19.254Z,0.20
2022-11-24T19:53:09.941Z,0.20
2022-11-24T19:56:06.786Z,0.20
2022-11-24T19:58:59.119Z,0.20
2022-11-24T20:01:49.853Z,0.10
2022-11-24T20:08:02.185Z,0.20
2022-11-24T20:10:52.099Z,0.20
2022-11-24T20:13:44.105Z,0.10
2022-11-24T20:16:38.134Z,0.20
2022-11-24T20:19:31.271Z,0.20
2022-11-24T20:22:20.762Z,0.20
2022-11-24T20:25:11.969Z,0.20
2022-11-24T20:28:01.296Z,0.20
2022-11-24T20:30:51.252Z,0.20
2022-11-24T20:33:43.095Z,0.20
2022-11-24T20:36:34.312Z,0.20
2022-11-24T20:39:27.131Z,0.30
2022-11-24T20:42:19.026Z,0.20
2022-11-24T20:45:10.107Z,0.20
2022-11-24T20:48:00.675Z,0.30
2022-11-24T20:50:52.102Z,0.30
2022-11-24T20:53:42.697Z,0.20
2022-11-24T20:56:34.665Z,0.30
2022-11-24T20:59:26.731Z,0.20
2022-11-24T21:02:16.618Z,0.30
2022-11-24T21:05:07.270Z,0.20
2022-11-24T21:07:58.144Z,0.10
2022-11-24T21:10:54.789Z,0.00
2022-11-24T21:13:49.532Z,0.00
2022-11-24T21:16:40.383Z,0.00
2022-11-24T21:19:31.193Z,0.00
2022-11-24T21:22:21.035Z,0.00
2022-11-24T21:25:12.248Z,0.00
2022-11-24T21:28:01.822Z,0.00
2022-11-24T21:30:51.540Z,0.00
2022-11-24T21:33:43.502Z,0.00
2022-11-24T21:36:35.496Z,0.00
2022-11-24T21:39:25.016Z,-0.10
2022-11-24T21:42:15.918Z,-0.10
2022-11-24T21:45:06.134Z,-0.20
2022-11-24T21:47:55.601Z,-0.10
2022-11-24T21:50:45.439Z,-0.10
2022-11-24T21:53:36.806Z,-0.10
2022-11-24T21:56:26.919Z,-0.20
2022-11-24T21:59:17.858Z,-0.20
2022-11-24T22:02:11.725Z,-0.20
2022-11-24T22:05:02.898Z,-0.20
2022-11-24T22:07:52.504Z,-0.10
2022-11-24T22:10:41.859Z,-0.10
2022-11-24T22:13:31.618Z,-0.20
2022-11-24T22:16:24.102Z,-0.20
2022-11-24T22:19:13.679Z,-0.10
2022-11-24T22:22:04.040Z,-0.10
2022-11-24T22:24:53.599Z,-0.10
2022-11-24T22:27:43.422Z,-0.20
2022-11-24T22:30:32.918Z,-0.20
2022-11-24T22:33:24.013Z,-0.20
2022-11-24T22:36:14.473Z,-0.20
2022-11-24T22:39:05.941Z,-0.30
2022-11-24T22:41:56.365Z,-0.40
2022-11-24T22:44:45.660Z,-0.50
2022-11-24T22:47:35.201Z,-0.50
2022-11-24T22:50:26.003Z,-0.50
2022-11-24T22:53:15.372Z,-0.50
2022-11-24T22:56:06.345Z,-0.50
2022-11-24T22:58:56.103Z,-0.50
2022-11-24T23:01:45.565Z,-0.50
2022-11-24T23:04:35.250Z,-0.40
2022-11-24T23:07:26.405Z,-0.40
2022-11-24T23:10:16.226Z,-0.50
2022-11-24T23:13:05.848Z,-0.40
2022-11-24T23:15:55.511Z,-0.30
2022-11-24T23:18:48.776Z,-0.30
2022-11-24T23:21:41.024Z,-0.30
2022-11-24T23:24:32.394Z,-0.30
2022-11-24T23:27:22.561Z,-0.40
2022-11-24T23:30:12.240Z,-0.40
2022-11-24T23:33:01.725Z,-0.40
2022-11-24T23:35:51.221Z,-0.40
2022-11-24T23:38:40.794Z,-0.50
2022-11-24T23:41:32.919Z,-0.50
2022-11-24T23:44:22.887Z,-0.70
2022-11-24T23:47:12.279Z,-0.70
2022-11-24T23:50:01.516Z,-0.80
2022-11-24T23:52:57.266Z,-0.80
2022-11-24T23:55:53.556Z,-0.90
2022-11-24T23:58:44.782Z,-0.90
